Time;durP1;ratioP1;P1;durP2;ratioP2;P2;SDS_P1;SDS_P2;PMS_P1;PMS_P2;Temp;Humidity;BMP_temperature;BMP_pressure;BME280_temperature;BME280_humidity;BME280_pressure;Samples;Min_cycle;Max_cycle;Signal;HPM_P1;HPM_P2
2019/12/15 00:00:02;;;;;;;1.93;1.55;;;;;;;20.11;42.29;99272.00;;;;-54
2019/12/15 00:03:03;;;;;;;1.78;1.60;;;;;;;20.10;42.31;99280.02;;;;-51
2019/12/15 00:06:02;;;;;;;1.97;1.64;;;;;;;20.10;42.26;99280.36;;;;-54
2019/12/15 00:09:02;;;;;;;2.09;1.67;;;;;;;20.08;42.30;99272.77;;;;-54
2019/12/15 00:12:02;;;;;;;2.02;1.60;;;;;;;20.05;42.32;99275.41;;;;-53
2019/12/15 00:15:03;;;;;;;1.91;1.50;;;;;;;20.03;42.33;99269.00;;;;-54
2019/12/15 00:18:02;;;;;;;1.97;1.60;;;;;;;20.02;42.32;99260.49;;;;-53
2019/12/15 00:21:02;;;;;;;1.90;1.70;;;;;;;20.02;42.38;99256.88;;;;-54
2019/12/15 00:24:02;;;;;;;2.01;1.49;;;;;;;20.01;42.31;99247.73;;;;-53
2019/12/15 00:27:02;;;;;;;2.03;1.53;;;;;;;19.98;42.36;99232.78;;;;-53
2019/12/15 00:30:02;;;;;;;1.83;1.43;;;;;;;19.98;42.34;99231.34;;;;-51
2019/12/15 00:33:02;;;;;;;1.96;1.60;;;;;;;19.96;42.34;99219.88;;;;-53
2019/12/15 00:36:02;;;;;;;1.63;1.49;;;;;;;19.95;42.36;99213.45;;;;-54
2019/12/15 00:39:03;;;;;;;1.61;1.51;;;;;;;19.94;42.39;99197.18;;;;-54
2019/12/15 00:42:02;;;;;;;1.85;1.60;;;;;;;19.92;42.42;99191.06;;;;-54
2019/12/15 00:45:02;;;;;;;1.99;1.62;;;;;;;19.90;42.44;99176.44;;;;-53
2019/12/15 00:48:02;;;;;;;2.04;1.45;;;;;;;19.89;42.33;99174.58;;;;-53
2019/12/15 00:51:02;;;;;;;1.96;1.67;;;;;;;19.88;42.41;99160.95;;;;-54
2019/12/15 00:54:02;;;;;;;1.63;1.50;;;;;;;19.86;42.40;99158.09;;;;-53
2019/12/15 00:57:02;;;;;;;1.99;1.59;;;;;;;19.85;42.41;99153.38;;;;-54
2019/12/15 01:00:02;;;;;;;1.81;1.57;;;;;;;19.84;42.48;99148.23;;;;-54
2019/12/15 01:03:08;;;;;;;1.77;1.50;;;;;;;19.82;42.41;99149.45;;;;-53
2019/12/15 01:06:02;;;;;;;2.12;1.65;;;;;;;19.81;42.49;99148.50;;;;-54
2019/12/15 01:09:02;;;;;;;2.03;1.52;;;;;;;19.79;42.43;99146.44;;;;-54
2019/12/15 01:12:02;;;;;;;2.35;1.58;;;;;;;19.78;42.50;99147.86;;;;-54
2019/12/15 01:15:02;;;;;;;1.55;1.44;;;;;;;19.77;42.51;99144.72;;;;-54
2019/12/15 01:18:02;;;;;;;1.70;1.42;;;;;;;19.76;42.50;99134.08;;;;-47
2019/12/15 01:21:03;;;;;;;1.71;1.50;;;;;;;19.75;42.49;99133.63;;;;-49
2019/12/15 01:24:02;;;;;;;1.91;1.53;;;;;;;19.74;42.47;99124.59;;;;-50
2019/12/15 01:27:02;;;;;;;1.57;1.43;;;;;;;19.72;42.55;99121.53;;;;-54
2019/12/15 01:30:02;;;;;;;1.60;1.41;;;;;;;19.72;42.52;99108.94;;;;-49
2019/12/15 01:33:02;;;;;;;1.61;1.51;;;;;;;19.71;42.57;99103.13;;;;-50
2019/12/15 01:36:02;;;;;;;1.59;1.47;;;;;;;19.70;42.49;99096.73;;;;-51
2019/12/15 01:39:02;;;;;;;1.59;1.43;;;;;;;19.69;42.59;99093.54;;;;-50
2019/12/15 01:42:02;;;;;;;1.57;1.45;;;;;;;19.68;42.56;99086.65;;;;-50
2019/12/15 01:45:02;;;;;;;1.33;1.23;;;;;;;19.66;42.58;99084.02;;;;-51
2019/12/15 01:48:02;;;;;;;1.45;1.35;;;;;;;19.66;42.59;99084.13;;;;-50
2019/12/15 01:51:02;;;;;;;1.51;1.41;;;;;;;19.65;42.59;99081.82;;;;-50
2019/12/15 01:54:02;;;;;;;1.53;1.39;;;;;;;19.64;42.57;99080.80;;;;-54
2019/12/15 01:57:02;;;;;;;1.81;1.41;;;;;;;19.63;42.59;99070.16;;;;-54
2019/12/15 02:00:02;;;;;;;1.61;1.40;;;;;;;19.62;42.63;99075.73;;;;-54
2019/12/15 02:03:48;;;;;;;1.47;1.31;;;;;;;19.60;42.58;99083.58;;;;-47
2019/12/15 02:06:20;;;;;;;1.43;1.30;;;;;;;19.59;42.65;99083.73;;;;-49
2019/12/15 02:09:02;;;;;;;1.67;1.35;;;;;;;19.59;42.67;99084.57;;;;-50
2019/12/15 02:12:02;;;;;;;1.60;1.29;;;;;;;19.57;42.71;99079.00;;;;-49
2019/12/15 02:15:02;;;;;;;1.72;1.43;;;;;;;19.57;42.69;99073.20;;;;-49
2019/12/15 02:18:02;;;;;;;1.47;1.30;;;;;;;19.55;42.74;99068.30;;;;-53
2019/12/15 02:21:02;;;;;;;1.83;1.41;;;;;;;19.54;42.71;99060.02;;;;-54
2019/12/15 02:24:02;;;;;;;1.89;1.31;;;;;;;19.53;42.65;99064.01;;;;-54
2019/12/15 02:27:02;;;;;;;1.45;1.30;;;;;;;19.52;42.77;99064.89;;;;-54
2019/12/15 02:30:02;;;;;;;1.37;1.27;;;;;;;19.52;42.70;99056.70;;;;-54
2019/12/15 02:33:02;;;;;;;1.68;1.35;;;;;;;19.51;42.74;99050.41;;;;-53
2019/12/15 02:36:02;;;;;;;1.49;1.39;;;;;;;19.51;42.75;99049.56;;;;-47
2019/12/15 02:39:02;;;;;;;1.37;1.27;;;;;;;19.48;42.74;99042.30;;;;-47
2019/12/15 02:42:02;;;;;;;1.45;1.35;;;;;;;19.48;42.74;99043.05;;;;-47
2019/12/15 02:45:02;;;;;;;1.49;1.39;;;;;;;19.48;42.76;99048.41;;;;-47
2019/12/15 02:48:02;;;;;;;2.15;1.50;;;;;;;19.46;42.72;99033.05;;;;-50
2019/12/15 02:51:02;;;;;;;1.67;1.40;;;;;;;19.45;42.78;99029.11;;;;-47
2019/12/15 02:54:02;;;;;;;1.57;1.39;;;;;;;19.44;42.72;99030.48;;;;-47
2019/12/15 02:57:02;;;;;;;1.56;1.42;;;;;;;19.43;42.79;99028.56;;;;-51
2019/12/15 03:00:02;;;;;;;1.38;1.28;;;;;;;19.42;42.77;99014.88;;;;-50
2019/12/15 03:03:02;;;;;;;1.49;1.36;;;;;;;19.41;42.80;99009.17;;;;-54
2019/12/15 03:06:02;;;;;;;1.39;1.27;;;;;;;19.40;42.82;99001.85;;;;-50
2019/12/15 03:09:02;;;;;;;1.39;1.29;;;;;;;19.39;42.77;98993.75;;;;-47
2019/12/15 03:12:02;;;;;;;1.35;1.25;;;;;;;19.39;42.81;98981.24;;;;-50
2019/12/15 03:15:02;;;;;;;1.35;1.25;;;;;;;19.38;42.83;98966.85;;;;-50
2019/12/15 03:18:02;;;;;;;1.30;1.20;;;;;;;19.38;42.82;98963.64;;;;-50
2019/12/15 03:21:02;;;;;;;1.45;1.31;;;;;;;19.37;42.82;98966.80;;;;-50
2019/12/15 03:24:02;;;;;;;1.51;1.41;;;;;;;19.36;42.83;98950.21;;;;-47
2019/12/15 03:27:02;;;;;;;1.52;1.42;;;;;;;19.35;42.85;98952.63;;;;-51
2019/12/15 03:30:02;;;;;;;1.33;1.23;;;;;;;19.34;42.85;98950.03;;;;-49
2019/12/15 03:33:02;;;;;;;1.39;1.29;;;;;;;19.32;42.87;98950.59;;;;-47
2019/12/15 03:36:02;;;;;;;1.46;1.31;;;;;;;19.32;42.86;98944.37;;;;-47
2019/12/15 03:39:02;;;;;;;1.40;1.30;;;;;;;19.32;42.87;98938.34;;;;-49
2019/12/15 03:42:02;;;;;;;1.45;1.30;;;;;;;19.30;42.86;98938.83;;;;-49
2019/12/15 03:45:02;;;;;;;1.30;1.20;;;;;;;19.31;42.88;98930.55;;;;-50
2019/12/15 03:48:02;;;;;;;1.21;1.11;;;;;;;19.29;42.88;98920.47;;;;-49
2019/12/15 03:54:02;;;;;;;1.30;1.20;;;;;;;19.27;42.93;98908.14;;;;-54
2019/12/15 03:57:02;;;;;;;1.30;1.20;;;;;;;19.27;42.89;98902.69;;;;-50
2019/12/15 04:00:02;;;;;;;1.32;1.22;;;;;;;19.26;42.93;98884.59;;;;-54
2019/12/15 04:03:02;;;;;;;1.44;1.34;;;;;;;19.25;42.94;98891.37;;;;-54
2019/12/15 04:06:02;;;;;;;1.31;1.21;;;;;;;19.25;42.96;98899.73;;;;-53
2019/12/15 04:09:02;;;;;;;1.36;1.26;;;;;;;19.24;42.92;98902.29;;;;-51
2019/12/15 04:12:02;;;;;;;1.42;1.30;;;;;;;19.23;42.92;98898.19;;;;-47
2019/12/15 04:15:02;;;;;;;1.40;1.30;;;;;;;19.23;42.91;98894.67;;;;-47
2019/12/15 04:18:02;;;;;;;1.36;1.26;;;;;;;19.23;42.96;98896.75;;;;-47
2019/12/15 04:21:02;;;;;;;1.28;1.18;;;;;;;19.21;42.96;98895.63;;;;-47
2019/12/15 04:24:02;;;;;;;1.40;1.30;;;;;;;19.21;42.94;98894.20;;;;-47
2019/12/15 04:27:02;;;;;;;1.76;1.41;;;;;;;19.20;42.97;98893.01;;;;-46
2019/12/15 04:30:02;;;;;;;1.29;1.19;;;;;;;19.19;43.01;98888.14;;;;-47
2019/12/15 04:33:02;;;;;;;1.30;1.20;;;;;;;19.18;42.98;98891.39;;;;-47
2019/12/15 04:36:02;;;;;;;1.35;1.25;;;;;;;19.18;42.96;98892.39;;;;-50
2019/12/15 04:39:02;;;;;;;1.30;1.20;;;;;;;19.18;42.99;98886.70;;;;-49
2019/12/15 04:42:02;;;;;;;1.46;1.25;;;;;;;19.18;42.98;98877.81;;;;-48
2019/12/15 04:45:02;;;;;;;1.31;1.21;;;;;;;19.18;43.04;98879.08;;;;-47
2019/12/15 04:48:02;;;;;;;1.37;1.22;;;;;;;19.18;43.08;98871.41;;;;-54
2019/12/15 04:51:02;;;;;;;1.13;1.10;;;;;;;19.20;42.97;98857.70;;;;-54
2019/12/15 04:54:02;;;;;;;1.35;1.23;;;;;;;19.22;42.97;98858.08;;;;-53
2019/12/15 04:57:02;;;;;;;1.25;1.15;;;;;;;19.22;43.02;98859.07;;;;-49
2019/12/15 05:00:02;;;;;;;1.18;1.10;;;;;;;19.24;43.01;98858.70;;;;-50
2019/12/15 05:03:02;;;;;;;1.30;1.20;;;;;;;19.26;43.03;98866.95;;;;-50
2019/12/15 05:06:02;;;;;;;1.30;1.20;;;;;;;19.29;42.99;98871.36;;;;-50
2019/12/15 05:09:02;;;;;;;1.26;1.16;;;;;;;19.32;43.00;98869.58;;;;-50
2019/12/15 05:12:02;;;;;;;1.29;1.19;;;;;;;19.36;43.09;98879.53;;;;-51
2019/12/15 05:15:02;;;;;;;1.15;1.10;;;;;;;19.41;43.05;98882.71;;;;-50
2019/12/15 05:18:02;;;;;;;1.27;1.17;;;;;;;19.44;43.02;98889.70;;;;-50
2019/12/15 05:21:02;;;;;;;1.20;1.10;;;;;;;19.49;43.11;98894.06;;;;-50
2019/12/15 05:24:02;;;;;;;1.27;1.17;;;;;;;19.52;43.13;98896.96;;;;-50
2019/12/15 05:27:02;;;;;;;1.08;1.05;;;;;;;19.55;43.12;98891.66;;;;-51
2019/12/15 05:30:02;;;;;;;1.13;1.10;;;;;;;19.59;43.19;98897.70;;;;-51
2019/12/15 05:33:02;;;;;;;1.17;1.09;;;;;;;19.61;43.10;98913.11;;;;-54
2019/12/15 05:36:02;;;;;;;1.01;1.01;;;;;;;19.65;43.14;98903.91;;;;-53
2019/12/15 05:39:02;;;;;;;1.20;1.10;;;;;;;19.67;43.19;98913.58;;;;-49
2019/12/15 05:42:02;;;;;;;1.25;1.15;;;;;;;19.70;43.15;98922.18;;;;-51
2019/12/15 05:45:02;;;;;;;1.09;1.09;;;;;;;19.74;43.22;98934.13;;;;-51
2019/12/15 05:48:02;;;;;;;1.12;1.12;;;;;;;19.76;43.14;98927.45;;;;-50
2019/12/15 05:51:02;;;;;;;1.20;1.10;;;;;;;19.80;43.14;98922.77;;;;-49
2019/12/15 05:54:02;;;;;;;1.25;1.15;;;;;;;19.83;43.13;98938.91;;;;-49
2019/12/15 05:57:02;;;;;;;1.29;1.19;;;;;;;19.86;43.20;98938.53;;;;-53
2019/12/15 06:00:02;;;;;;;1.19;1.09;;;;;;;19.90;43.13;98934.25;;;;-46
2019/12/15 06:03:02;;;;;;;1.10;1.10;;;;;;;19.91;43.23;98946.67;;;;-47
2019/12/15 06:06:02;;;;;;;1.14;1.11;;;;;;;19.93;43.14;98943.33;;;;-47
2019/12/15 06:09:02;;;;;;;1.00;1.00;;;;;;;19.94;43.17;98946.38;;;;-47
2019/12/15 06:12:02;;;;;;;1.03;0.99;;;;;;;19.95;43.18;98945.16;;;;-47
2019/12/15 06:15:02;;;;;;;1.26;1.16;;;;;;;19.96;43.15;98961.57;;;;-47
2019/12/15 06:18:02;;;;;;;1.12;1.10;;;;;;;19.98;43.18;98981.55;;;;-49
2019/12/15 06:21:02;;;;;;;1.02;1.00;;;;;;;19.99;43.08;98992.14;;;;-49
2019/12/15 06:24:02;;;;;;;1.12;1.00;;;;;;;20.00;43.14;99005.41;;;;-49
2019/12/15 06:27:02;;;;;;;1.20;1.10;;;;;;;20.02;43.06;99014.00;;;;-49
2019/12/15 06:30:02;;;;;;;1.21;1.14;;;;;;;20.02;43.04;99035.10;;;;-49
2019/12/15 06:33:01;;;;;;;1.20;1.10;;;;;;;20.03;43.06;99018.87;;;;-49
2019/12/15 06:36:02;;;;;;;1.26;1.16;;;;;;;20.05;43.08;99003.91;;;;-49
2019/12/15 06:39:01;;;;;;;1.13;1.10;;;;;;;20.06;43.06;99025.13;;;;-49
2019/12/15 06:42:02;;;;;;;1.18;1.08;;;;;;;20.08;43.06;99031.77;;;;-49
2019/12/15 06:45:06;;;;;;;1.35;1.05;;;;;;;20.10;43.03;99022.69;;;;-49
2019/12/15 06:48:02;;;;;;;1.05;1.05;;;;;;;20.10;43.09;99005.59;;;;-49
2019/12/15 06:51:04;;;;;;;1.00;1.00;;;;;;;20.13;42.96;99027.34;;;;-49
2019/12/15 06:54:03;;;;;;;1.03;1.01;;;;;;;20.16;43.06;99039.53;;;;-49
2019/12/15 06:57:02;;;;;;;1.01;1.00;;;;;;;20.17;43.03;99032.95;;;;-49
2019/12/15 07:00:01;;;;;;;1.07;1.03;;;;;;;20.19;42.99;99027.22;;;;-49
2019/12/15 07:03:02;;;;;;;1.01;0.92;;;;;;;20.21;42.99;99025.16;;;;-49
2019/12/15 07:06:02;;;;;;;1.20;1.10;;;;;;;20.23;42.98;99028.62;;;;-49
2019/12/15 07:09:02;;;;;;;1.31;1.07;;;;;;;20.25;42.90;99023.88;;;;-49
2019/12/15 07:12:02;;;;;;;1.00;1.00;;;;;;;20.26;42.95;99026.55;;;;-49
2019/12/15 07:15:02;;;;;;;1.20;1.10;;;;;;;20.28;42.94;99029.70;;;;-49
2019/12/15 07:18:02;;;;;;;1.33;1.00;;;;;;;20.29;43.01;99034.68;;;;-49
2019/12/15 07:21:01;;;;;;;1.09;1.03;;;;;;;20.32;42.89;99041.25;;;;-49
2019/12/15 07:24:02;;;;;;;1.00;1.00;;;;;;;20.33;42.92;99044.95;;;;-49
2019/12/15 07:27:01;;;;;;;1.03;1.03;;;;;;;20.34;42.89;99045.83;;;;-49
2019/12/15 07:30:02;;;;;;;1.00;1.00;;;;;;;20.36;42.88;99039.57;;;;-49
2019/12/15 07:33:02;;;;;;;1.01;1.01;;;;;;;20.38;42.91;99035.18;;;;-49
2019/12/15 07:36:02;;;;;;;1.25;1.15;;;;;;;20.39;42.91;99036.70;;;;-49
2019/12/15 07:39:02;;;;;;;1.10;1.10;;;;;;;20.40;42.86;99035.88;;;;-49
2019/12/15 07:42:02;;;;;;;0.91;0.91;;;;;;;20.42;42.81;99036.33;;;;-49
2019/12/15 07:45:02;;;;;;;0.91;0.91;;;;;;;20.42;42.82;99034.48;;;;-49
2019/12/15 07:48:01;;;;;;;1.00;1.00;;;;;;;20.43;42.78;99035.27;;;;-49
2019/12/15 07:51:02;;;;;;;1.00;1.00;;;;;;;20.44;42.80;99045.08;;;;-49
2019/12/15 07:54:02;;;;;;;1.00;1.00;;;;;;;20.44;42.71;99057.33;;;;-49
2019/12/15 07:57:02;;;;;;;0.96;0.96;;;;;;;20.44;42.72;99062.85;;;;-49
2019/12/15 08:00:02;;;;;;;1.00;1.00;;;;;;;20.44;42.71;99057.05;;;;-49
2019/12/15 08:03:02;;;;;;;0.99;0.99;;;;;;;20.45;42.73;99063.88;;;;-49
2019/12/15 08:06:02;;;;;;;0.97;0.97;;;;;;;20.46;42.67;99058.59;;;;-49
2019/12/15 08:09:02;;;;;;;1.01;1.01;;;;;;;20.45;42.61;99070.01;;;;-49
2019/12/15 08:12:02;;;;;;;0.91;0.91;;;;;;;20.46;42.63;99082.00;;;;-49
2019/12/15 08:15:02;;;;;;;0.95;0.93;;;;;;;20.46;42.68;99088.64;;;;-49
2019/12/15 08:18:02;;;;;;;0.89;0.89;;;;;;;20.46;42.59;99096.69;;;;-49
2019/12/15 08:21:02;;;;;;;0.91;0.91;;;;;;;20.47;42.60;99103.55;;;;-49
2019/12/15 08:24:02;;;;;;;1.00;1.00;;;;;;;20.48;42.66;99109.11;;;;-49
2019/12/15 08:27:02;;;;;;;1.02;1.02;;;;;;;20.47;42.61;99112.30;;;;-49
2019/12/15 08:30:02;;;;;;;0.79;0.79;;;;;;;20.48;42.56;99104.94;;;;-49
2019/12/15 08:33:02;;;;;;;0.92;0.92;;;;;;;20.48;42.58;99111.48;;;;-49
2019/12/15 08:36:02;;;;;;;1.15;0.90;;;;;;;20.50;42.56;99101.34;;;;-49
2019/12/15 08:39:02;;;;;;;0.85;0.85;;;;;;;20.50;42.60;99106.03;;;;-49
2019/12/15 08:42:02;;;;;;;0.90;0.90;;;;;;;20.51;42.51;99108.50;;;;-49
2019/12/15 08:45:02;;;;;;;1.10;1.00;;;;;;;20.52;42.58;99111.77;;;;-49
2019/12/15 08:48:24;;;;;;;1.00;1.00;;;;;;;20.53;42.58;99121.35;;;;-49
2019/12/15 08:51:08;;;;;;;0.91;0.91;;;;;;;20.53;42.55;99132.37;;;;-49
2019/12/15 08:54:04;;;;;;;1.00;1.00;;;;;;;20.54;42.60;99131.55;;;;-49
2019/12/15 08:57:02;;;;;;;1.01;1.01;;;;;;;20.56;42.54;99139.87;;;;-49
2019/12/15 09:00:02;;;;;;;0.94;0.94;;;;;;;20.57;42.54;99152.12;;;;-46
2019/12/15 09:03:02;;;;;;;1.00;1.00;;;;;;;20.58;42.51;99152.56;;;;-47
2019/12/15 09:06:02;;;;;;;0.90;0.90;;;;;;;20.58;42.48;99152.50;;;;-47
2019/12/15 09:09:03;;;;;;;0.91;0.91;;;;;;;20.59;42.48;99152.08;;;;-47
2019/12/15 09:12:02;;;;;;;0.83;0.83;;;;;;;20.60;42.42;99153.10;;;;-51
2019/12/15 09:15:02;;;;;;;0.90;0.90;;;;;;;20.60;42.47;99164.59;;;;-51
2019/12/15 09:18:02;;;;;;;0.85;0.85;;;;;;;20.60;42.49;99175.75;;;;-50
2019/12/15 09:21:02;;;;;;;0.90;0.90;;;;;;;20.61;42.42;99177.11;;;;-50
2019/12/15 09:24:02;;;;;;;0.87;0.87;;;;;;;20.61;42.44;99181.55;;;;-51
2019/12/15 09:27:02;;;;;;;1.00;1.00;;;;;;;20.62;42.43;99189.20;;;;-51
2019/12/15 09:30:02;;;;;;;0.92;0.89;;;;;;;20.62;42.46;99176.56;;;;-51
2019/12/15 09:33:02;;;;;;;0.85;0.85;;;;;;;20.62;42.43;99183.10;;;;-51
2019/12/15 09:36:02;;;;;;;0.87;0.87;;;;;;;20.63;42.43;99203.72;;;;-50
2019/12/15 09:39:02;;;;;;;0.99;0.99;;;;;;;20.64;42.41;99214.98;;;;-51
2019/12/15 09:42:01;;;;;;;1.06;1.00;;;;;;;20.65;42.40;99219.80;;;;-50
2019/12/15 09:45:02;;;;;;;0.87;0.87;;;;;;;20.65;42.38;99216.95;;;;-50
2019/12/15 09:48:01;;;;;;;0.97;0.97;;;;;;;20.66;42.39;99222.23;;;;-51
2019/12/15 09:51:02;;;;;;;0.93;0.93;;;;;;;20.68;42.42;99224.05;;;;-49
2019/12/15 09:54:02;;;;;;;2.15;1.02;;;;;;;20.71;42.37;99231.56;;;;-50
2019/12/15 09:57:02;;;;;;;0.94;0.90;;;;;;;20.71;42.62;99233.00;;;;-48
2019/12/15 10:00:02;;;;;;;1.43;0.93;;;;;;;20.74;43.09;99236.39;;;;-45
2019/12/15 10:03:01;;;;;;;0.87;0.87;;;;;;;20.77;43.30;99226.58;;;;-45
2019/12/15 10:06:01;;;;;;;2.33;1.10;;;;;;;20.81;43.12;99224.07;;;;-50
2019/12/15 10:09:02;;;;;;;4.09;1.13;;;;;;;20.78;42.74;99222.64;;;;-45
2019/12/15 10:12:02;;;;;;;20.62;1.37;;;;;;;20.86;43.22;99226.78;;;;-48
2019/12/15 10:15:07;;;;;;;1.14;0.95;;;;;;;20.88;43.36;99221.66;;;;-44
2019/12/15 10:24:02;;;;;;;1.09;0.94;;;;;;;20.90;42.81;99319.54;;;;-47
2019/12/15 10:27:02;;;;;;;0.97;0.92;;;;;;;20.88;42.66;99361.31;;;;-46
2019/12/15 10:30:02;;;;;;;0.90;0.88;;;;;;;20.89;42.65;99364.16;;;;-47
2019/12/15 10:33:02;;;;;;;1.01;0.92;;;;;;;20.88;42.62;99372.38;;;;-47
2019/12/15 10:36:02;;;;;;;1.42;1.08;;;;;;;20.88;42.55;99375.23;;;;-47
2019/12/15 10:39:02;;;;;;;0.94;0.94;;;;;;;20.88;42.53;99378.26;;;;-47
2019/12/15 10:42:02;;;;;;;1.09;1.00;;;;;;;20.89;42.54;99400.27;;;;-47
2019/12/15 10:45:02;;;;;;;1.10;1.00;;;;;;;20.89;42.46;99411.24;;;;-46
2019/12/15 10:48:02;;;;;;;2.67;1.08;;;;;;;20.93;42.98;99400.42;;;;-44
2019/12/15 10:51:02;;;;;;;2.17;1.17;;;;;;;20.94;43.17;99399.70;;;;-45
2019/12/15 10:54:02;;;;;;;1.86;1.19;;;;;;;20.96;43.20;99413.91;;;;-43
2019/12/15 10:57:02;;;;;;;1.69;1.01;;;;;;;20.97;42.96;99415.44;;;;-45
2019/12/15 11:00:02;;;;;;;1.77;1.33;;;;;;;21.00;43.33;99410.64;;;;-48
2019/12/15 11:03:02;;;;;;;1.24;1.11;;;;;;;21.01;43.19;99399.01;;;;-43
2019/12/15 11:06:03;;;;;;;2.88;1.34;;;;;;;21.05;43.58;99396.21;;;;-50
2019/12/15 11:09:02;;;;;;;1.47;1.21;;;;;;;21.05;42.84;99401.41;;;;-50
2019/12/15 11:12:02;;;;;;;2.15;1.16;;;;;;;21.03;42.72;99419.33;;;;-50
2019/12/15 11:15:02;;;;;;;1.47;1.15;;;;;;;21.02;42.73;99425.19;;;;-50
2019/12/15 11:18:02;;;;;;;1.59;1.09;;;;;;;21.01;42.55;99430.88;;;;-50
2019/12/15 11:21:01;;;;;;;1.29;1.06;;;;;;;21.02;42.61;99437.61;;;;-50
2019/12/15 11:24:02;;;;;;;1.51;1.10;;;;;;;21.03;42.56;99429.51;;;;-50
2019/12/15 11:27:02;;;;;;;1.33;1.20;;;;;;;21.01;42.55;99431.71;;;;-50
2019/12/15 11:30:02;;;;;;;1.75;1.01;;;;;;;21.01;42.49;99432.24;;;;-50
2019/12/15 11:33:02;;;;;;;6.29;1.34;;;;;;;21.06;42.83;99434.91;;;;-51
2019/12/15 11:36:02;;;;;;;3.51;1.13;;;;;;;21.07;42.61;99439.25;;;;-47
2019/12/15 11:39:02;;;;;;;4.05;1.27;;;;;;;21.09;42.70;99450.69;;;;-47
2019/12/15 11:42:01;;;;;;;1.53;1.10;;;;;;;21.13;42.65;99463.77;;;;-45
2019/12/15 11:45:02;;;;;;;3.27;1.44;;;;;;;21.15;42.65;99473.14;;;;-45
2019/12/15 11:48:01;;;;;;;3.89;1.30;;;;;;;21.17;42.94;99470.58;;;;-48
2019/12/15 11:51:02;;;;;;;2.30;1.30;;;;;;;21.16;42.86;99475.85;;;;-48
2019/12/15 11:54:02;;;;;;;1.75;1.21;;;;;;;21.19;43.09;99481.19;;;;-45
2019/12/15 11:57:02;;;;;;;3.46;1.49;;;;;;;21.22;42.92;99489.58;;;;-45
2019/12/15 12:00:02;;;;;;;3.36;1.24;;;;;;;21.24;42.84;99490.03;;;;-44
2019/12/15 12:03:02;;;;;;;3.05;1.37;;;;;;;21.23;42.85;99498.51;;;;-43
2019/12/15 12:13:20;;;;;;;1.73;1.32;;;;;;;21.27;43.08;99524.26;;;;-50
2019/12/15 12:16:20;;;;;;;3.91;1.30;;;;;;;21.29;42.88;99534.91;;;;-45
2019/12/15 12:19:20;;;;;;;3.19;1.29;;;;;;;21.25;42.64;99523.30;;;;-45
2019/12/15 12:22:20;;;;;;;1.67;1.31;;;;;;;21.25;42.65;99526.42;;;;-45
2019/12/15 12:25:20;;;;;;;2.09;1.35;;;;;;;21.24;42.56;99521.27;;;;-45
2019/12/15 12:28:20;;;;;;;1.70;1.15;;;;;;;21.23;42.57;99520.50;;;;-46
2019/12/15 12:31:20;;;;;;;1.66;1.21;;;;;;;21.22;42.56;99528.20;;;;-45
2019/12/15 12:34:20;;;;;;;1.69;1.25;;;;;;;21.21;42.47;99532.79;;;;-45
2019/12/15 12:37:20;;;;;;;1.38;1.28;;;;;;;21.19;42.44;99540.39;;;;-45
2019/12/15 12:40:20;;;;;;;1.74;1.26;;;;;;;21.18;42.43;99552.97;;;;-46
2019/12/15 12:43:20;;;;;;;1.57;1.17;;;;;;;21.17;42.45;99557.48;;;;-45
2019/12/15 12:48:48;;;;;;;1.45;1.24;;;;;;;21.15;42.44;99550.98;;;;-45
2019/12/15 12:51:48;;;;;;;1.87;1.31;;;;;;;21.15;42.37;99561.80;;;;-44
2019/12/15 12:54:49;;;;;;;1.49;1.20;;;;;;;21.17;42.83;99555.20;;;;-48
2019/12/15 12:57:48;;;;;;;4.09;1.45;;;;;;;21.19;42.57;99561.89;;;;-48
2019/12/15 13:00:49;;;;;;;2.83;1.20;;;;;;;21.18;42.75;99574.56;;;;-50
2019/12/15 13:03:49;;;;;;;3.35;1.11;;;;;;;21.20;42.96;99575.08;;;;-48
2019/12/15 13:06:49;;;;;;;2.32;1.25;;;;;;;21.22;42.98;99581.17;;;;-49
2019/12/15 13:09:48;;;;;;;2.25;1.29;;;;;;;21.23;43.08;99586.40;;;;-48
2019/12/15 13:12:49;;;;;;;1.39;1.20;;;;;;;21.23;43.10;99588.84;;;;-50
2019/12/15 13:15:49;;;;;;;2.31;1.27;;;;;;;21.25;43.03;99574.80;;;;-50
2019/12/15 13:19:00;;;;;;;2.02;1.25;;;;;;;21.28;42.96;99574.59;;;;-43
2019/12/15 13:22:04;;;;;;;2.49;1.41;;;;;;;21.29;43.21;99581.34;;;;-45
2019/12/15 13:24:49;;;;;;;3.54;1.30;;;;;;;21.27;42.85;99587.16;;;;-43
2019/12/15 13:27:48;;;;;;;3.95;1.36;;;;;;;21.26;42.81;99598.05;;;;-44
2019/12/15 13:30:48;;;;;;;2.64;1.31;;;;;;;21.27;42.73;99596.06;;;;-43
2019/12/15 13:33:48;;;;;;;2.13;1.50;;;;;;;21.28;42.92;99592.23;;;;-47
2019/12/15 13:36:49;;;;;;;3.24;1.60;;;;;;;21.24;42.62;99593.81;;;;-45
2019/12/15 13:39:48;;;;;;;3.55;1.44;;;;;;;21.23;42.59;99590.70;;;;-46
2019/12/15 13:42:48;;;;;;;3.80;1.64;;;;;;;21.25;42.80;99595.78;;;;-49
2019/12/15 13:45:48;;;;;;;3.65;1.45;;;;;;;21.25;42.64;99618.78;;;;-49
2019/12/15 13:48:49;;;;;;;2.33;1.38;;;;;;;21.24;42.48;99615.64;;;;-49
2019/12/15 13:51:48;;;;;;;3.27;1.29;;;;;;;21.23;42.50;99610.58;;;;-58
2019/12/15 13:54:49;;;;;;;3.55;1.48;;;;;;;21.22;42.51;99612.16;;;;-58
2019/12/15 14:02:04;;;;;;;1.85;1.30;;;;;;;21.20;42.46;99626.72;;;;-58
2019/12/15 14:05:04;;;;;;;1.82;1.34;;;;;;;21.20;42.47;99629.08;;;;-58
2019/12/15 14:08:04;;;;;;;4.10;1.41;;;;;;;21.19;42.46;99633.58;;;;-59
2019/12/15 14:11:04;;;;;;;3.07;1.47;;;;;;;21.19;42.44;99639.97;;;;-58
2019/12/15 14:14:04;;;;;;;2.77;1.30;;;;;;;21.19;42.44;99640.53;;;;-58
2019/12/15 14:17:04;;;;;;;3.01;1.23;;;;;;;21.19;42.44;99648.36;;;;-58
2019/12/15 14:20:04;;;;;;;1.69;1.19;;;;;;;21.19;42.40;99647.93;;;;-58
2019/12/15 14:23:04;;;;;;;2.28;1.19;;;;;;;21.19;42.43;99649.03;;;;-58
2019/12/15 14:26:04;;;;;;;1.85;1.21;;;;;;;21.19;42.41;99663.55;;;;-58
2019/12/15 14:29:04;;;;;;;1.39;1.28;;;;;;;21.19;42.42;99667.17;;;;-58
2019/12/15 14:32:04;;;;;;;1.91;1.31;;;;;;;21.19;42.44;99664.98;;;;-59
2019/12/15 14:35:04;;;;;;;2.10;1.23;;;;;;;21.19;42.44;99672.94;;;;-58
2019/12/15 14:38:04;;;;;;;1.64;1.17;;;;;;;21.19;42.45;99687.55;;;;-59
2019/12/15 14:41:04;;;;;;;1.41;1.30;;;;;;;21.19;42.41;99695.04;;;;-58
2019/12/15 14:44:04;;;;;;;2.39;1.20;;;;;;;21.19;42.44;99696.62;;;;-58
2019/12/15 14:47:04;;;;;;;1.64;1.30;;;;;;;21.20;42.39;99704.37;;;;-58
2019/12/15 14:50:04;;;;;;;1.65;1.30;;;;;;;21.19;42.39;99692.69;;;;-59
2019/12/15 14:53:04;;;;;;;1.30;1.20;;;;;;;21.20;42.40;99696.75;;;;-58
2019/12/15 14:56:04;;;;;;;1.47;1.21;;;;;;;21.20;42.40;99697.83;;;;-59
2019/12/15 15:02:23;;;;;;;4.54;1.41;;;;;;;21.24;42.76;99737.66;;;;-56
2019/12/15 15:05:22;;;;;;;2.17;1.30;;;;;;;21.25;43.35;99735.06;;;;-54
2019/12/15 15:08:22;;;;;;;2.81;1.23;;;;;;;21.26;43.36;99736.09;;;;-59
2019/12/15 15:11:22;;;;;;;2.27;1.32;;;;;;;21.30;43.18;99741.73;;;;-59
2019/12/15 15:14:23;;;;;;;1.42;1.19;;;;;;;21.31;42.96;99747.98;;;;-58
2019/12/15 15:17:33;;;;;;;3.51;1.40;;;;;;;21.37;43.49;99761.23;;;;-51
2019/12/15 15:20:22;;;;;;;1.41;1.30;;;;;;;21.37;43.15;99763.05;;;;-51
2019/12/15 15:23:28;;;;;;;1.71;1.36;;;;;;;21.36;43.17;99759.13;;;;-54
2019/12/15 15:26:22;;;;;;;2.46;1.41;;;;;;;21.37;43.23;99753.23;;;;-54
2019/12/15 15:29:22;;;;;;;6.29;1.59;;;;;;;21.39;43.05;99749.83;;;;-51
2019/12/15 15:32:23;;;;;;;3.13;1.46;;;;;;;21.40;42.90;99745.95;;;;-51
2019/12/15 15:35:23;;;;;;;1.48;1.25;;;;;;;21.40;42.79;99751.50;;;;-51
2019/12/15 15:38:22;;;;;;;1.62;1.34;;;;;;;21.42;43.34;99760.16;;;;-50
2019/12/15 15:41:23;;;;;;;1.83;1.35;;;;;;;21.43;43.12;99762.97;;;;-53
2019/12/15 15:44:22;;;;;;;2.99;1.51;;;;;;;21.44;43.00;99777.94;;;;-52
2019/12/15 15:47:22;;;;;;;3.11;1.47;;;;;;;21.45;43.15;99775.52;;;;-51
2019/12/15 15:50:22;;;;;;;1.77;1.32;;;;;;;21.45;43.22;99774.09;;;;-54
2019/12/15 15:53:22;;;;;;;5.59;1.65;;;;;;;21.42;42.65;99774.22;;;;-51
2019/12/15 15:56:22;;;;;;;4.22;1.89;;;;;;;21.39;42.40;99765.98;;;;-51
2019/12/15 15:59:23;;;;;;;4.63;1.60;;;;;;;21.37;42.38;99748.06;;;;-51
2019/12/15 16:02:22;;;;;;;3.55;1.75;;;;;;;21.35;41.91;99781.60;;;;-52
2019/12/15 16:05:22;;;;;;;2.33;1.67;;;;;;;21.35;42.26;99799.98;;;;-54
2019/12/15 16:08:22;;;;;;;2.53;1.67;;;;;;;21.40;42.93;99805.63;;;;-60
2019/12/15 16:11:23;;;;;;;2.64;1.57;;;;;;;21.37;42.69;99795.91;;;;-47
2019/12/15 16:14:23;;;;;;;4.09;1.71;;;;;;;21.48;43.15;99794.27;;;;-49
2019/12/15 16:17:23;;;;;;;3.67;1.55;;;;;;;21.49;42.97;99793.69;;;;-47
2019/12/15 16:20:23;;;;;;;2.19;1.53;;;;;;;21.52;43.08;99802.51;;;;-44
2019/12/15 16:26:41;;;;;;;13.31;1.94;;;;;;;21.57;43.59;99793.39;;;;-55
2019/12/15 16:29:41;;;;;;;2.61;1.62;;;;;;;21.57;43.45;99800.11;;;;-60
2019/12/15 16:32:41;;;;;;;3.35;1.53;;;;;;;21.59;43.45;99801.78;;;;-53
2019/12/15 16:35:41;;;;;;;3.53;1.70;;;;;;;21.60;43.43;99801.70;;;;-58
2019/12/15 16:38:41;;;;;;;2.75;1.55;;;;;;;21.59;43.18;99812.80;;;;-52
2019/12/15 16:41:41;;;;;;;4.00;1.48;;;;;;;21.60;43.15;99816.83;;;;-52
2019/12/15 16:44:41;;;;;;;4.77;1.78;;;;;;;21.56;42.61;99825.22;;;;-53
2019/12/15 16:47:41;;;;;;;3.23;1.67;;;;;;;21.59;42.84;99835.89;;;;-53
2019/12/15 16:50:41;;;;;;;4.97;1.61;;;;;;;21.58;42.75;99836.50;;;;-61
2019/12/15 16:57:57;;;;;;;4.15;1.53;;;;;;;21.62;42.89;99848.30;;;;-52
2019/12/15 17:00:56;;;;;;;3.53;1.61;;;;;;;21.63;43.11;99852.86;;;;-51
2019/12/15 17:03:57;;;;;;;3.31;1.57;;;;;;;21.62;43.21;99858.24;;;;-50
2019/12/15 17:06:57;;;;;;;2.05;1.57;;;;;;;21.61;42.94;99857.65;;;;-50
2019/12/15 17:09:57;;;;;;;5.65;1.71;;;;;;;21.62;42.43;99866.24;;;;-47
2019/12/15 17:12:56;;;;;;;4.91;1.55;;;;;;;21.62;42.68;99866.21;;;;-47
2019/12/15 17:15:57;;;;;;;3.03;1.61;;;;;;;21.51;42.42;99849.69;;;;-47
2019/12/15 17:18:56;;;;;;;1.74;1.35;;;;;;;21.59;42.50;99860.62;;;;-47
2019/12/15 17:21:57;;;;;;;2.43;1.45;;;;;;;21.60;42.49;99858.03;;;;-47
2019/12/15 17:24:57;;;;;;;1.83;1.45;;;;;;;21.58;42.58;99852.02;;;;-48
2019/12/15 17:27:57;;;;;;;1.90;1.70;;;;;;;21.57;42.58;99859.02;;;;-50